Time;durP1;ratioP1;P1;durP2;ratioP2;P2;SDS_P1;SDS_P2;PMS_P1;PMS_P2;Temp;Humidity;BMP_temperature;BMP_pressure;BME280_temperature;BME280_humidity;BME280_pressure;Samples;Min_cycle;Max_cycle;Signal;HPM_P1;HPM_P2
2023/04/10 00:01:34;;;;;;;;;;;19.10;39.20;;;;;;5110440;27;19926;-59
2023/04/10 00:04:01;;;;;;;;;;;19.10;39.20;;;;;;5119795;27;19971;-60
2023/04/10 00:06:28;;;;;;;;;;;19.10;39.20;;;;;;5086307;28;19920;-60
2023/04/10 00:08:56;;;;;;;;;;;19.10;39.20;;;;;;5124829;27;19926;-57
2023/04/10 00:11:23;;;;;;;;;;;19.10;39.20;;;;;;5136960;27;19979;-58
2023/04/10 00:13:50;;;;;;;;;;;19.10;39.20;;;;;;5118701;27;19976;-62
2023/04/10 00:16:17;;;;;;;;;;;19.10;39.20;;;;;;5139022;27;19987;-62
2023/04/10 00:18:44;;;;;;;;;;;19.10;39.20;;;;;;5139623;27;19965;-59
2023/04/10 00:21:10;;;;;;;;;;;19.00;39.10;;;;;;5138778;27;19929;-58
2023/04/10 00:23:37;;;;;;;;;;;19.10;39.20;;;;;;5121275;27;19919;-59
2023/04/10 00:26:06;;;;;;;;;;;19.10;39.20;;;;;;5137504;27;19919;-61
2023/04/10 00:28:32;;;;;;;;;;;19.10;39.20;;;;;;5122466;27;19976;-59
2023/04/10 00:30:59;;;;;;;;;;;19.10;39.20;;;;;;5115842;28;20267;-60
2023/04/10 00:33:26;;;;;;;;;;;19.10;39.20;;;;;;5118391;28;19919;-61
2023/04/10 00:35:53;;;;;;;;;;;19.00;39.10;;;;;;5086826;28;19926;-59
2023/04/10 00:38:20;;;;;;;;;;;19.10;39.10;;;;;;5104389;28;19940;-60
2023/04/10 00:40:47;;;;;;;;;;;19.00;39.10;;;;;;5102537;28;19920;-60
2023/04/10 00:43:15;;;;;;;;;;;19.00;39.00;;;;;;5119592;28;19919;-60
2023/04/10 00:45:42;;;;;;;;;;;19.00;39.00;;;;;;5100526;27;19973;-60
2023/04/10 00:48:08;;;;;;;;;;;19.00;39.00;;;;;;5116896;27;19926;-59
2023/04/10 00:50:36;;;;;;;;;;;19.00;39.00;;;;;;5120216;28;19923;-58
2023/04/10 00:53:04;;;;;;;;;;;19.00;39.10;;;;;;5137037;27;20027;-59
2023/04/10 00:55:31;;;;;;;;;;;19.00;39.00;;;;;;5120393;27;19964;-60
2023/04/10 00:57:58;;;;;;;;;;;19.00;39.00;;;;;;5117374;27;19968;-59
2023/04/10 01:00:26;;;;;;;;;;;19.00;39.00;;;;;;5137090;27;19923;-60
2023/04/10 01:02:53;;;;;;;;;;;19.00;39.00;;;;;;5120484;28;19923;-60
2023/04/10 01:05:20;;;;;;;;;;;19.00;39.00;;;;;;5135713;27;19923;-60
2023/04/10 01:07:51;;;;;;;;;;;19.00;39.00;;;;;;5136161;28;19919;-58
2023/04/10 01:10:21;;;;;;;;;;;19.00;39.00;;;;;;5121029;28;19923;-59
2023/04/10 01:12:51;;;;;;;;;;;19.00;39.00;;;;;;5137423;28;19926;-61
2023/04/10 01:15:18;;;;;;;;;;;19.00;39.00;;;;;;5136437;28;19927;-58
2023/04/10 01:17:49;;;;;;;;;;;18.90;39.00;;;;;;5136655;28;19920;-59
2023/04/10 01:20:17;;;;;;;;;;;19.00;39.00;;;;;;5120296;28;19919;-59
2023/04/10 01:22:49;;;;;;;;;;;18.90;38.90;;;;;;5119789;28;19919;-58
2023/04/10 01:25:19;;;;;;;;;;;18.90;38.90;;;;;;5137510;28;19927;-59
2023/04/10 01:27:47;;;;;;;;;;;18.90;38.90;;;;;;5136613;28;19919;-60
2023/04/10 01:30:17;;;;;;;;;;;18.90;38.90;;;;;;5100252;28;20026;-60
2023/04/10 01:32:43;;;;;;;;;;;18.90;38.90;;;;;;5136447;28;20277;-59
2023/04/10 01:35:13;;;;;;;;;;;18.90;38.90;;;;;;5120614;27;19920;-59
2023/04/10 01:37:42;;;;;;;;;;;18.90;38.90;;;;;;5137490;27;19919;-61
2023/04/10 01:40:10;;;;;;;;;;;18.90;38.90;;;;;;5123305;27;19919;-60
2023/04/10 01:42:39;;;;;;;;;;;18.90;38.90;;;;;;5115658;28;20365;-59
2023/04/10 01:45:07;;;;;;;;;;;18.90;39.50;;;;;;5121173;28;19927;-59
2023/04/10 01:47:35;;;;;;;;;;;18.90;38.90;;;;;;5103494;28;19927;-59
2023/04/10 01:50:02;;;;;;;;;;;18.90;38.90;;;;;;5112589;27;20413;-59
2023/04/10 01:52:30;;;;;;;;;;;18.90;38.90;;;;;;5136245;27;19920;-59
2023/04/10 01:54:57;;;;;;;;;;;18.90;38.90;;;;;;5100785;28;19920;-59
2023/04/10 01:57:24;;;;;;;;;;;18.90;38.90;;;;;;5117915;27;19926;-55
2023/04/10 01:59:51;;;;;;;;;;;18.90;38.90;;;;;;5142439;27;20021;-59
2023/04/10 02:02:19;;;;;;;;;;;18.90;38.90;;;;;;5125961;27;19919;-60
2023/04/10 02:04:50;;;;;;;;;;;18.80;38.80;;;;;;5138708;27;19927;-60
2023/04/10 02:07:18;;;;;;;;;;;18.90;38.90;;;;;;5089353;28;20014;-60
2023/04/10 02:09:45;;;;;;;;;;;18.90;38.90;;;;;;5126090;27;19964;-59
2023/04/10 02:12:13;;;;;;;;;;;18.80;38.80;;;;;;5140530;27;19972;-59
2023/04/10 02:14:41;;;;;;;;;;;18.80;38.80;;;;;;5118306;27;20266;-59
2023/04/10 02:17:08;;;;;;;;;;;18.80;38.80;;;;;;5120145;27;19920;-59
2023/04/10 02:19:35;;;;;;;;;;;18.80;38.80;;;;;;5117648;27;19923;-59
2023/04/10 02:22:03;;;;;;;;;;;18.80;38.80;;;;;;5097452;28;19931;-59
2023/04/10 02:24:29;;;;;;;;;;;18.80;38.70;;;;;;5096664;27;19920;-58
2023/04/10 02:26:56;;;;;;;;;;;18.80;38.80;;;;;;5108123;27;19969;-58
2023/04/10 02:29:23;;;;;;;;;;;18.80;38.80;;;;;;5113515;27;19919;-58
2023/04/10 02:31:50;;;;;;;;;;;18.80;38.80;;;;;;5108773;27;19930;-59
2023/04/10 02:34:16;;;;;;;;;;;18.80;38.70;;;;;;5106025;28;20319;-58
2023/04/10 02:36:43;;;;;;;;;;;18.80;38.70;;;;;;5106946;27;19920;-59
2023/04/10 02:39:11;;;;;;;;;;;18.80;38.70;;;;;;5104906;27;20008;-59
2023/04/10 02:41:38;;;;;;;;;;;18.80;38.70;;;;;;5112826;27;19923;-59
2023/04/10 02:44:05;;;;;;;;;;;18.80;38.70;;;;;;5112612;27;19995;-59
2023/04/10 02:46:32;;;;;;;;;;;18.80;38.70;;;;;;5107964;27;19946;-59
2023/04/10 02:48:59;;;;;;;;;;;18.80;38.70;;;;;;5120414;27;19934;-59
2023/04/10 02:51:26;;;;;;;;;;;18.80;38.70;;;;;;5123099;27;19927;-59
2023/04/10 02:53:53;;;;;;;;;;;18.80;39.30;;;;;;5114822;27;20014;-60
2023/04/10 02:56:21;;;;;;;;;;;18.80;38.70;;;;;;5097071;27;20257;-59
2023/04/10 02:58:48;;;;;;;;;;;18.80;38.70;;;;;;5098696;28;19919;-60
2023/04/10 03:01:15;;;;;;;;;;;18.80;38.70;;;;;;5098643;28;19919;-59
2023/04/10 03:03:41;;;;;;;;;;;18.80;38.70;;;;;;5098288;28;19919;-59
2023/04/10 03:06:08;;;;;;;;;;;18.80;38.70;;;;;;5116543;28;19926;-59
2023/04/10 03:08:35;;;;;;;;;;;18.80;38.70;;;;;;5098787;28;20254;-59
2023/04/10 03:11:02;;;;;;;;;;;18.70;38.60;;;;;;5116488;28;19931;-60
2023/04/10 03:13:30;;;;;;;;;;;18.80;39.30;;;;;;5081053;28;19965;-59
2023/04/10 03:15:57;;;;;;;;;;;18.80;38.70;;;;;;5098045;28;20274;-60
2023/04/10 03:18:24;;;;;;;;;;;18.80;38.70;;;;;;5098692;28;19919;-60
2023/04/10 03:20:50;;;;;;;;;;;18.70;38.60;;;;;;5116482;28;19942;-59
2023/04/10 03:23:17;;;;;;;;;;;18.70;38.60;;;;;;5098573;28;19920;-59
2023/04/10 03:25:44;;;;;;;;;;;18.70;38.60;;;;;;5131478;27;19920;-59
2023/04/10 03:28:11;;;;;;;;;;;18.70;38.50;;;;;;5118173;27;19980;-59
2023/04/10 03:30:39;;;;;;;;;;;18.70;38.60;;;;;;5118771;27;20348;-59
2023/04/10 03:33:06;;;;;;;;;;;18.70;38.50;;;;;;5118219;27;19968;-59
2023/04/10 03:35:32;;;;;;;;;;;18.70;38.50;;;;;;5133507;27;19923;-59
2023/04/10 03:37:59;;;;;;;;;;;18.70;38.50;;;;;;5136924;27;19926;-56
2023/04/10 03:40:26;;;;;;;;;;;18.70;38.50;;;;;;5117874;27;19931;-60
2023/04/10 03:42:53;;;;;;;;;;;18.70;38.50;;;;;;5117768;27;19963;-60
2023/04/10 03:45:19;;;;;;;;;;;18.70;38.60;;;;;;5118606;27;19927;-60
2023/04/10 03:47:48;;;;;;;;;;;18.70;38.60;;;;;;5136042;27;19919;-60
2023/04/10 03:50:14;;;;;;;;;;;18.70;38.70;;;;;;5136825;27;19926;-60
2023/04/10 03:52:41;;;;;;;;;;;18.70;38.70;;;;;;5134677;27;19920;-60
2023/04/10 03:55:08;;;;;;;;;;;18.80;38.80;;;;;;5116266;27;19942;-60
2023/04/10 03:57:35;;;;;;;;;;;18.80;38.90;;;;;;5133653;27;19919;-59
2023/04/10 04:00:01;;;;;;;;;;;18.70;38.80;;;;;;5117721;27;19920;-60
2023/04/10 04:02:28;;;;;;;;;;;18.80;38.90;;;;;;5134576;27;19975;-60
2023/04/10 04:04:56;;;;;;;;;;;18.80;38.90;;;;;;5117603;27;19923;-60
2023/04/10 04:07:23;;;;;;;;;;;18.80;38.90;;;;;;5124623;27;19924;-59
2023/04/10 04:09:50;;;;;;;;;;;18.80;38.90;;;;;;5096853;28;20254;-60
2023/04/10 04:12:16;;;;;;;;;;;18.80;38.90;;;;;;5113367;28;19923;-60
2023/04/10 04:14:44;;;;;;;;;;;18.80;38.90;;;;;;5096855;28;19927;-60
2023/04/10 04:17:11;;;;;;;;;;;18.90;39.00;;;;;;5097551;28;20010;-60
2023/04/10 04:19:37;;;;;;;;;;;18.90;39.00;;;;;;5097447;28;19927;-60
2023/04/10 04:22:05;;;;;;;;;;;18.90;39.00;;;;;;5097107;28;19926;-60
2023/04/10 04:24:32;;;;;;;;;;;18.90;39.00;;;;;;5096711;28;19919;-60
2023/04/10 04:27:00;;;;;;;;;;;18.90;39.00;;;;;;5096751;28;19919;-60
2023/04/10 04:29:26;;;;;;;;;;;18.90;39.00;;;;;;5112648;27;19920;-60
2023/04/10 04:31:53;;;;;;;;;;;18.90;39.00;;;;;;5117538;27;20311;-60
2023/04/10 04:34:20;;;;;;;;;;;18.90;39.00;;;;;;5116939;27;19945;-60
2023/04/10 04:36:46;;;;;;;;;;;18.90;39.00;;;;;;5116724;27;19980;-60
2023/04/10 04:39:15;;;;;;;;;;;18.90;39.00;;;;;;5117749;27;19958;-60
2023/04/10 04:41:42;;;;;;;;;;;18.90;39.00;;;;;;5117166;27;19919;-60
2023/04/10 04:44:09;;;;;;;;;;;18.90;39.00;;;;;;5116759;27;19919;-60
2023/04/10 04:46:35;;;;;;;;;;;18.90;39.00;;;;;;5117200;27;19923;-60
2023/04/10 04:49:02;;;;;;;;;;;18.90;39.00;;;;;;5133330;27;20019;-60
2023/04/10 04:51:29;;;;;;;;;;;19.00;39.10;;;;;;5114527;27;19920;-60
2023/04/10 04:53:56;;;;;;;;;;;18.90;39.00;;;;;;5126796;27;19919;-59
2023/04/10 04:56:24;;;;;;;;;;;18.90;39.00;;;;;;5098584;27;20357;-60
2023/04/10 04:58:51;;;;;;;;;;;19.00;39.00;;;;;;5128234;27;19920;-60
2023/04/10 05:01:17;;;;;;;;;;;19.00;39.00;;;;;;5107936;27;19973;-60
2023/04/10 05:03:44;;;;;;;;;;;19.00;39.10;;;;;;5107561;28;19919;-60
2023/04/10 05:06:11;;;;;;;;;;;19.00;39.10;;;;;;5092983;28;19923;-60
2023/04/10 05:08:38;;;;;;;;;;;19.00;39.10;;;;;;5123496;28;19923;-60
2023/04/10 05:11:05;;;;;;;;;;;19.00;39.10;;;;;;5097583;28;19927;-60
2023/04/10 05:13:33;;;;;;;;;;;19.00;39.10;;;;;;5115206;28;19959;-60
2023/04/10 05:15:59;;;;;;;;;;;19.00;39.10;;;;;;5097981;28;19965;-60
2023/04/10 05:18:26;;;;;;;;;;;19.00;39.10;;;;;;5114034;28;19923;-60
2023/04/10 05:20:53;;;;;;;;;;;19.00;39.10;;;;;;5102604;28;19924;-60
2023/04/10 05:23:20;;;;;;;;;;;19.00;39.10;;;;;;5102276;28;19965;-60
2023/04/10 05:25:47;;;;;;;;;;;19.00;39.10;;;;;;5105776;28;19927;-60
2023/04/10 05:28:13;;;;;;;;;;;19.00;39.10;;;;;;5112429;28;19924;-60
2023/04/10 05:30:41;;;;;;;;;;;19.00;39.10;;;;;;5100997;28;19934;-60
2023/04/10 05:33:08;;;;;;;;;;;19.00;39.10;;;;;;5095513;28;19924;-60
2023/04/10 05:35:35;;;;;;;;;;;19.00;39.10;;;;;;5099920;28;19968;-60
2023/04/10 05:38:01;;;;;;;;;;;19.00;39.70;;;;;;5102353;28;19924;-60
2023/04/10 05:40:28;;;;;;;;;;;19.00;39.10;;;;;;5119540;28;19926;-60
2023/04/10 05:42:55;;;;;;;;;;;19.00;39.10;;;;;;5121617;28;19919;-60
2023/04/10 05:45:22;;;;;;;;;;;19.00;39.10;;;;;;5102610;28;19920;-60
2023/04/10 05:47:50;;;;;;;;;;;19.00;39.10;;;;;;5104404;28;19936;-60
2023/04/10 05:50:17;;;;;;;;;;;19.00;39.10;;;;;;5108144;28;19919;-60
2023/04/10 05:52:45;;;;;;;;;;;19.00;39.10;;;;;;5101915;28;19919;-60
2023/04/10 05:55:12;;;;;;;;;;;19.00;39.10;;;;;;5094596;28;19926;-60
2023/04/10 05:57:38;;;;;;;;;;;19.10;39.20;;;;;;5101362;28;19920;-60
2023/04/10 06:00:06;;;;;;;;;;;19.00;39.10;;;;;;5112586;28;19968;-60
2023/04/10 06:02:34;;;;;;;;;;;19.00;39.10;;;;;;5078237;28;19920;-60
2023/04/10 06:05:02;;;;;;;;;;;19.10;39.20;;;;;;5099034;28;19919;-60
2023/04/10 06:07:31;;;;;;;;;;;19.00;39.10;;;;;;5095169;28;19919;-60
2023/04/10 06:09:58;;;;;;;;;;;19.10;39.20;;;;;;5113738;28;20370;-60
2023/04/10 06:12:24;;;;;;;;;;;19.00;39.10;;;;;;5113859;28;19999;-60
2023/04/10 06:14:51;;;;;;;;;;;19.00;39.10;;;;;;5095488;28;19920;-60
2023/04/10 06:17:20;;;;;;;;;;;19.10;39.20;;;;;;5095611;28;20291;-60
2023/04/10 06:19:46;;;;;;;;;;;19.10;39.20;;;;;;5095699;28;19927;-61
2023/04/10 06:22:14;;;;;;;;;;;19.10;39.20;;;;;;5097062;28;19920;-61
2023/04/10 06:24:41;;;;;;;;;;;19.10;39.20;;;;;;5099069;28;19920;-61
2023/04/10 06:27:08;;;;;;;;;;;19.00;39.10;;;;;;5099928;28;19923;-61
2023/04/10 06:29:35;;;;;;;;;;;19.10;39.20;;;;;;5098727;28;20296;-61
2023/04/10 06:32:01;;;;;;;;;;;19.10;39.20;;;;;;5098889;28;20369;-61
2023/04/10 06:34:29;;;;;;;;;;;19.10;39.20;;;;;;5098895;28;19927;-61
2023/04/10 06:36:55;;;;;;;;;;;19.00;39.10;;;;;;5109322;27;19925;-61
2023/04/10 06:39:23;;;;;;;;;;;19.10;39.20;;;;;;5137988;27;19950;-61
2023/04/10 06:41:50;;;;;;;;;;;19.10;39.20;;;;;;5110211;28;19927;-61
2023/04/10 06:44:17;;;;;;;;;;;19.10;39.20;;;;;;5096318;28;19924;-60
2023/04/10 06:46:44;;;;;;;;;;;19.10;39.20;;;;;;5078995;28;19920;-60
2023/04/10 06:49:10;;;;;;;;;;;19.10;39.20;;;;;;5078948;28;20244;-60
2023/04/10 06:51:37;;;;;;;;;;;19.10;39.20;;;;;;5076770;28;20304;-60
2023/04/10 06:54:04;;;;;;;;;;;19.10;39.20;;;;;;5094978;28;19973;-60
2023/04/10 06:56:32;;;;;;;;;;;19.10;39.20;;;;;;5079437;28;19919;-59
2023/04/10 06:58:59;;;;;;;;;;;19.10;39.20;;;;;;5115173;28;19927;-60
2023/04/10 07:01:26;;;;;;;;;;;19.10;39.20;;;;;;5113991;28;19950;-60
2023/04/10 07:03:52;;;;;;;;;;;19.10;39.20;;;;;;5113521;28;20330;-59
2023/04/10 07:06:19;;;;;;;;;;;19.10;39.20;;;;;;5115856;28;19927;-60
2023/04/10 07:08:46;;;;;;;;;;;19.10;39.20;;;;;;5113706;28;19919;-60
2023/04/10 07:11:13;;;;;;;;;;;19.10;39.20;;;;;;5106974;28;19973;-60
2023/04/10 07:13:41;;;;;;;;;;;19.10;39.20;;;;;;5076093;28;20278;-60
2023/04/10 07:16:08;;;;;;;;;;;19.10;39.20;;;;;;5096090;28;19923;-60
2023/04/10 07:18:37;;;;;;;;;;;19.10;39.20;;;;;;5128428;27;20379;-60
2023/04/10 07:21:09;;;;;;;;;;;19.10;39.20;;;;;;5114285;28;20348;-60
2023/04/10 07:23:36;;;;;;;;;;;19.10;39.20;;;;;;5113165;28;19920;-61
2023/04/10 07:26:03;;;;;;;;;;;19.10;39.20;;;;;;5119161;27;19920;-60
2023/04/10 07:28:32;;;;;;;;;;;19.10;39.20;;;;;;5097513;28;19920;-60
2023/04/10 07:31:00;;;;;;;;;;;19.10;39.20;;;;;;5122713;27;19926;-60
2023/04/10 07:33:27;;;;;;;;;;;19.10;39.80;;;;;;5106525;28;19919;-59
2023/04/10 07:35:53;;;;;;;;;;;19.10;39.20;;;;;;5098057;28;19920;-60
2023/04/10 07:38:22;;;;;;;;;;;19.10;39.20;;;;;;5116097;28;19973;-60
2023/04/10 07:40:50;;;;;;;;;;;19.10;39.30;;;;;;5115761;28;19920;-60
2023/04/10 07:43:16;;;;;;;;;;;19.10;39.20;;;;;;5115236;28;19999;-61
2023/04/10 07:45:43;;;;;;;;;;;19.10;39.30;;;;;;5113937;28;19985;-61
2023/04/10 07:48:11;;;;;;;;;;;19.10;39.20;;;;;;5103129;27;19923;-61
2023/04/10 07:50:40;;;;;;;;;;;19.10;39.20;;;;;;5133541;27;20138;-61
2023/04/10 07:53:07;;;;;;;;;;;19.10;39.80;;;;;;5117645;27;20303;-60
2023/04/10 07:55:37;;;;;;;;;;;19.10;39.20;;;;;;5117893;27;19925;-60
2023/04/10 07:58:04;;;;;;;;;;;19.10;39.30;;;;;;5118284;27;19919;-60
2023/04/10 08:00:30;;;;;;;;;;;19.20;39.30;;;;;;5126001;27;19919;-59
2023/04/10 08:02:57;;;;;;;;;;;19.10;39.20;;;;;;5117566;27;19968;-60
2023/04/10 08:05:25;;;;;;;;;;;19.10;39.20;;;;;;5135921;27;19969;-60
2023/04/10 08:07:52;;;;;;;;;;;19.10;39.20;;;;;;5117391;27;19920;-60
2023/04/10 08:10:19;;;;;;;;;;;19.10;39.20;;;;;;5113204;28;19969;-60
2023/04/10 08:12:45;;;;;;;;;;;19.20;39.30;;;;;;5097732;28;19924;-60
2023/04/10 08:15:12;;;;;;;;;;;19.20;39.30;;;;;;5113637;28;19926;-60
2023/04/10 08:17:39;;;;;;;;;;;19.20;39.30;;;;;;5096904;28;19920;-60
2023/04/10 08:20:06;;;;;;;;;;;19.20;39.30;;;;;;5097227;28;19962;-61
2023/04/10 08:22:34;;;;;;;;;;;19.20;39.30;;;;;;5097842;27;19943;-60
2023/04/10 08:25:01;;;;;;;;;;;19.20;39.30;;;;;;5114756;27;19919;-59
2023/04/10 08:27:29;;;;;;;;;;;19.20;39.30;;;;;;5096679;28;19976;-60
2023/04/10 08:29:56;;;;;;;;;;;19.20;39.30;;;;;;5080229;28;19930;-60
2023/04/10 08:32:25;;;;;;;;;;;19.20;39.30;;;;;;5096610;28;19924;-60
2023/04/10 08:34:52;;;;;;;;;;;19.20;39.30;;;;;;5097300;28;19920;-60
2023/04/10 08:37:20;;;;;;;;;;;19.20;39.30;;;;;;5114950;28;19972;-60
2023/04/10 08:39:48;;;;;;;;;;;19.20;39.30;;;;;;5110312;27;19995;-60
2023/04/10 08:42:14;;;;;;;;;;;19.20;39.40;;;;;;5127220;27;20315;-60
2023/04/10 08:44:41;;;;;;;;;;;19.20;39.40;;;;;;5112893;28;19946;-60
2023/04/10 08:47:08;;;;;;;;;;;19.20;39.50;;;;;;5115026;27;19919;-60
2023/04/10 08:49:38;;;;;;;;;;;19.20;39.50;;;;;;5116819;27;19926;-60
2023/04/10 08:52:06;;;;;;;;;;;19.20;39.60;;;;;;5108176;28;20003;-60
2023/04/10 08:54:34;;;;;;;;;;;19.20;39.60;;;;;;5112696;28;20277;-60
2023/04/10 08:57:03;;;;;;;;;;;19.30;39.70;;;;;;5112156;27;19972;-60
2023/04/10 08:59:30;;;;;;;;;;;19.20;39.70;;;;;;5113014;27;19926;-60
2023/04/10 09:01:57;;;;;;;;;;;19.30;40.40;;;;;;5116891;27;19947;-60
2023/04/10 09:04:24;;;;;;;;;;;19.30;39.80;;;;;;5097839;28;19949;-60
2023/04/10 09:06:51;;;;;;;;;;;19.30;39.80;;;;;;5102344;28;19919;-59
2023/04/10 09:09:18;;;;;;;;;;;19.30;39.90;;;;;;5101447;28;19919;-60
2023/04/10 09:11:59;;;;;;;;;;;19.30;40.00;;;;;;5098614;28;19942;-59
2023/04/10 09:14:28;;;;;;;;;;;19.30;40.00;;;;;;5106354;28;20014;-59
2023/04/10 09:16:57;;;;;;;;;;;19.30;40.10;;;;;;5117402;28;20006;-59
2023/04/10 09:19:29;;;;;;;;;;;19.30;40.30;;;;;;5124919;28;19968;-59
2023/04/10 09:21:56;;;;;;;;;;;19.40;40.40;;;;;;5102522;28;19923;-59
2023/04/10 09:24:22;;;;;;;;;;;19.40;40.40;;;;;;5098670;28;19969;-59
2023/04/10 09:26:49;;;;;;;;;;;19.40;40.40;;;;;;5110469;28;19919;-59
2023/04/10 09:29:16;;;;;;;;;;;19.40;40.50;;;;;;5102124;28;19973;-59
2023/04/10 09:31:44;;;;;;;;;;;19.40;40.50;;;;;;5099191;28;19926;-60
2023/04/10 09:34:12;;;;;;;;;;;19.40;40.60;;;;;;5105986;28;20410;-58
2023/04/10 09:36:40;;;;;;;;;;;19.50;40.70;;;;;;5100326;28;19930;-60
2023/04/10 09:39:06;;;;;;;;;;;19.50;40.70;;;;;;5119863;28;19948;-60
2023/04/10 09:41:33;;;;;;;;;;;19.50;40.70;;;;;;5119550;28;19921;-60
2023/04/10 09:44:07;;;;;;;;;;;19.50;40.70;;;;;;5107037;28;19920;-60
2023/04/10 09:46:33;;;;;;;;;;;19.60;40.90;;;;;;5132770;28;20021;-60
2023/04/10 09:49:04;;;;;;;;;;;19.60;40.90;;;;;;5109690;28;19920;-61
2023/04/10 09:51:31;;;;;;;;;;;19.60;40.90;;;;;;5111884;28;19965;-61
2023/04/10 09:53:57;;;;;;;;;;;19.60;40.90;;;;;;5113201;28;19924;-62
2023/04/10 09:56:25;;;;;;;;;;;19.60;40.90;;;;;;5113629;28;19988;-62
2023/04/10 09:58:51;;;;;;;;;;;19.70;41.00;;;;;;5117276;28;19924;-62
2023/04/10 10:01:18;;;;;;;;;;;19.70;40.90;;;;;;5117048;28;19973;-62
2023/04/10 10:03:45;;;;;;;;;;;19.70;40.90;;;;;;5117633;28;19919;-62
2023/04/10 10:06:13;;;;;;;;;;;19.70;40.90;;;;;;5132886;27;19919;-60
2023/04/10 10:08:40;;;;;;;;;;;19.70;40.90;;;;;;5119966;27;19920;-62
2023/04/10 10:11:08;;;;;;;;;;;19.70;41.00;;;;;;5114344;28;19931;-61
2023/04/10 10:13:36;;;;;;;;;;;19.70;41.00;;;;;;5133443;27;19925;-61
2023/04/10 10:16:04;;;;;;;;;;;19.80;41.00;;;;;;5117455;28;19923;-60
2023/04/10 10:18:33;;;;;;;;;;;19.80;41.00;;;;;;5116286;28;19962;-60
2023/04/10 10:21:00;;;;;;;;;;;19.80;41.00;;;;;;5103584;28;19927;-60
2023/04/10 10:23:28;;;;;;;;;;;19.80;40.90;;;;;;5117244;28;20011;-60
2023/04/10 10:25:55;;;;;;;;;;;19.80;40.90;;;;;;5099859;28;19927;-60
2023/04/10 10:28:21;;;;;;;;;;;19.80;40.90;;;;;;5095074;28;19920;-61
2023/04/10 10:30:48;;;;;;;;;;;19.80;40.90;;;;;;5096668;28;19927;-62
2023/04/10 10:33:15;;;;;;;;;;;19.80;40.90;;;;;;5094947;28;20003;-60
2023/04/10 10:35:42;;;;;;;;;;;19.80;41.00;;;;;;5094196;28;19920;-61
2023/04/10 10:38:09;;;;;;;;;;;19.80;40.90;;;;;;5095243;28;19920;-62
2023/04/10 10:40:38;;;;;;;;;;;19.80;40.90;;;;;;5091255;28;19920;-55
2023/04/10 10:43:07;;;;;;;;;;;19.80;40.90;;;;;;5115741;28;19920;-58
2023/04/10 10:45:34;;;;;;;;;;;19.80;40.70;;;;;;5130772;27;19926;-57
2023/04/10 10:48:01;;;;;;;;;;;19.80;40.70;;;;;;5116791;28;20357;-57
2023/04/10 10:50:37;;;;;;;;;;;19.80;40.50;;;;;;5116160;28;19920;-57
2023/04/10 10:53:03;;;;;;;;;;;19.80;40.50;;;;;;5134263;27;19968;-56
2023/04/10 10:55:37;;;;;;;;;;;19.80;40.40;;;;;;5118780;27;20275;-57
2023/04/10 10:58:05;;;;;;;;;;;19.70;40.20;;;;;;5099024;28;19927;-56
2023/04/10 11:00:51;;;;;;;;;;;19.70;40.10;;;;;;5099135;28;19976;-58
2023/04/10 11:03:27;;;;;;;;;;;19.70;40.10;;;;;;5098193;28;19924;-60
2023/04/10 11:05:54;;;;;;;;;;;19.70;40.00;;;;;;5098245;28;19965;-59
2023/04/10 11:08:27;;;;;;;;;;;19.70;39.90;;;;;;5114220;28;19919;-59
2023/04/10 11:11:00;;;;;;;;;;;19.70;39.70;;;;;;5098148;28;19920;-59
2023/04/10 11:13:28;;;;;;;;;;;19.70;39.80;;;;;;5116330;28;19920;-57
2023/04/10 11:15:55;;;;;;;;;;;19.70;39.70;;;;;;5114785;28;20304;-59
2023/04/10 11:18:36;;;;;;;;;;;19.70;40.10;;;;;;5113306;28;19920;-59
2023/04/10 11:21:09;;;;;;;;;;;19.70;39.50;;;;;;5116532;28;19920;-59
2023/04/10 11:23:36;;;;;;;;;;;19.70;39.50;;;;;;5114946;28;19969;-59
2023/04/10 11:26:03;;;;;;;;;;;19.70;39.40;;;;;;5097670;28;20362;-59
2023/04/10 11:28:37;;;;;;;;;;;19.70;39.40;;;;;;5115054;28;19972;-59
2023/04/10 11:31:14;;;;;;;;;;;19.70;39.40;;;;;;5111320;28;19943;-59
2023/04/10 11:33:40;;;;;;;;;;;19.70;39.30;;;;;;5096205;28;19919;-59
2023/04/10 11:36:07;;;;;;;;;;;19.70;39.30;;;;;;5098271;28;19920;-59
2023/04/10 11:38:35;;;;;;;;;;;19.70;39.20;;;;;;5097560;28;19938;-59
2023/04/10 11:41:03;;;;;;;;;;;19.70;39.20;;;;;;5095881;28;19920;-59
2023/04/10 11:43:30;;;;;;;;;;;19.60;39.10;;;;;;5097029;28;19984;-58
2023/04/10 11:46:04;;;;;;;;;;;19.60;39.00;;;;;;5118795;28;20280;-60
2023/04/10 11:48:31;;;;;;;;;;;19.60;39.00;;;;;;5090623;28;20002;-59
2023/04/10 11:51:00;;;;;;;;;;;19.60;39.00;;;;;;5083151;28;19924;-60
2023/04/10 11:53:28;;;;;;;;;;;19.60;39.00;;;;;;5100155;28;19926;-60
2023/04/10 11:55:56;;;;;;;;;;;19.60;38.90;;;;;;5104328;28;19927;-60
2023/04/10 11:58:29;;;;;;;;;;;19.60;38.80;;;;;;5118069;28;19942;-59
2023/04/10 12:00:58;;;;;;;;;;;19.60;38.90;;;;;;5100548;28;19920;-58
2023/04/10 12:03:42;;;;;;;;;;;19.60;38.90;;;;;;5089855;28;20357;-58
2023/04/10 12:06:10;;;;;;;;;;;19.60;38.80;;;;;;5101543;28;19976;-58
2023/04/10 12:08:38;;;;;;;;;;;19.60;38.80;;;;;;5100307;28;19923;-60
2023/04/10 12:11:06;;;;;;;;;;;19.60;38.80;;;;;;5099620;28;19919;-60
2023/04/10 12:13:32;;;;;;;;;;;19.60;38.80;;;;;;5116908;28;19923;-58
2023/04/10 12:16:00;;;;;;;;;;;19.60;38.80;;;;;;5098414;28;19920;-60
2023/04/10 12:18:27;;;;;;;;;;;19.60;38.70;;;;;;5096064;28;19920;-63
2023/04/10 12:20:56;;;;;;;;;;;19.60;38.70;;;;;;5098858;28;19923;-59
2023/04/10 12:23:24;;;;;;;;;;;19.60;38.70;;;;;;5096577;28;20396;-61
2023/04/10 12:25:54;;;;;;;;;;;19.60;38.70;;;;;;5094834;28;19927;-61
2023/04/10 12:28:21;;;;;;;;;;;19.60;38.70;;;;;;5097242;28;19943;-61
2023/04/10 12:30:48;;;;;;;;;;;19.60;38.80;;;;;;5092759;28;19919;-61
2023/04/10 12:33:20;;;;;;;;;;;19.60;38.80;;;;;;5111175;28;19920;-61
2023/04/10 12:35:46;;;;;;;;;;;19.60;38.80;;;;;;5092526;28;19920;-60
2023/04/10 12:38:15;;;;;;;;;;;19.60;38.80;;;;;;5111481;28;19998;-60
2023/04/10 12:40:56;;;;;;;;;;;19.60;38.80;;;;;;5099154;28;19920;-60
2023/04/10 12:43:41;;;;;;;;;;;19.60;38.80;;;;;;5098139;28;19963;-61
2023/04/10 12:46:08;;;;;;;;;;;19.60;38.80;;;;;;5109770;28;19988;-61
2023/04/10 12:48:34;;;;;;;;;;;19.60;38.80;;;;;;5093135;28;19924;-61
2023/04/10 12:51:01;;;;;;;;;;;19.60;38.80;;;;;;5101268;28;19932;-61
2023/04/10 12:53:29;;;;;;;;;;;19.60;38.80;;;;;;5111093;28;19923;-61
2023/04/10 12:55:58;;;;;;;;;;;19.60;38.90;;;;;;5093451;28;19920;-61
2023/04/10 12:58:26;;;;;;;;;;;19.60;38.80;;;;;;5093927;28;19955;-61
2023/04/10 13:00:53;;;;;;;;;;;19.60;38.90;;;;;;5098365;27;19930;-62
2023/04/10 13:03:20;;;;;;;;;;;19.60;38.90;;;;;;5101064;28;19928;-62
2023/04/10 13:05:47;;;;;;;;;;;19.60;38.80;;;;;;5092724;28;19919;-61
2023/04/10 13:08:14;;;;;;;;;;;19.60;38.80;;;;;;5110961;28;19919;-61
2023/04/10 13:10:42;;;;;;;;;;;19.60;38.90;;;;;;5112400;28;19920;-61
2023/04/10 13:13:10;;;;;;;;;;;19.60;38.80;;;;;;5111420;28;19923;-61
2023/04/10 13:15:37;;;;;;;;;;;19.60;38.80;;;;;;5114471;28;19919;-62
2023/04/10 13:18:05;;;;;;;;;;;19.60;38.90;;;;;;5116882;28;20349;-62
2023/04/10 13:20:32;;;;;;;;;;;19.60;38.80;;;;;;5134840;28;19972;-62
2023/04/10 13:22:59;;;;;;;;;;;19.60;38.90;;;;;;5116482;28;19968;-62
2023/04/10 13:25:26;;;;;;;;;;;19.60;38.80;;;;;;5116237;28;19927;-62
2023/04/10 13:27:54;;;;;;;;;;;19.60;38.80;;;;;;5100868;28;19927;-61
2023/04/10 13:30:21;;;;;;;;;;;19.60;38.80;;;;;;5096087;28;19965;-62
2023/04/10 13:32:48;;;;;;;;;;;19.60;38.80;;;;;;5096921;28;19927;-61
2023/04/10 13:35:14;;;;;;;;;;;19.60;38.80;;;;;;5099869;28;19943;-61
2023/04/10 13:37:41;;;;;;;;;;;19.60;38.80;;;;;;5099866;28;20346;-62
2023/04/10 13:40:08;;;;;;;;;;;19.60;38.80;;;;;;5100336;28;19920;-62
2023/04/10 13:42:35;;;;;;;;;;;19.60;38.80;;;;;;5097751;28;20377;-62
2023/04/10 13:45:04;;;;;;;;;;;19.70;38.90;;;;;;5095655;28;19954;-62
2023/04/10 13:47:31;;;;;;;;;;;19.60;38.90;;;;;;5115231;28;19920;-61
2023/04/10 13:49:57;;;;;;;;;;;19.60;38.80;;;;;;5099948;28;20308;-62
2023/04/10 13:52:24;;;;;;;;;;;19.70;38.90;;;;;;5106218;28;19920;-62
2023/04/10 13:54:51;;;;;;;;;;;19.60;38.80;;;;;;5100232;28;19966;-62
2023/04/10 13:57:18;;;;;;;;;;;19.60;38.80;;;;;;5100217;28;19958;-61
2023/04/10 13:59:44;;;;;;;;;;;19.60;38.90;;;;;;5114751;28;19923;-61
2023/04/10 14:02:12;;;;;;;;;;;19.60;38.80;;;;;;5116194;28;19919;-62
2023/04/10 14:04:40;;;;;;;;;;;19.60;38.80;;;;;;5117795;28;19979;-61
2023/04/10 14:07:06;;;;;;;;;;;19.60;38.80;;;;;;5100324;28;20022;-62
2023/04/10 14:09:33;;;;;;;;;;;19.70;38.90;;;;;;5116470;28;19973;-62
2023/04/10 14:12:00;;;;;;;;;;;19.70;39.00;;;;;;5097217;28;19928;-61
2023/04/10 14:14:27;;;;;;;;;;;19.70;38.90;;;;;;5099266;28;19926;-62
2023/04/10 14:16:53;;;;;;;;;;;19.70;38.90;;;;;;5116268;28;19924;-62
2023/04/10 14:19:22;;;;;;;;;;;19.70;38.90;;;;;;5096563;28;19924;-61